createdAt,value
2022-12-13T00:00:50.450Z,46.63
2022-12-13T00:02:51.872Z,48.97
2022-12-13T00:04:53.354Z,46.88
2022-12-13T00:06:54.865Z,44.70
2022-12-13T00:08:56.974Z,50.45
2022-12-13T00:11:03.268Z,49.55
2022-12-13T00:13:04.743Z,48.20
2022-12-13T00:15:07.058Z,44.67
2022-12-13T00:17:08.489Z,39.53
2022-12-13T00:19:09.909Z,48.92
2022-12-13T00:21:16.696Z,48.80
2022-12-13T00:23:18.648Z,46.63
2022-12-13T00:25:21.393Z,47.65
2022-12-13T00:27:23.302Z,52.45
2022-12-13T00:29:24.779Z,49.15
2022-12-13T00:31:56.546Z,51.80
2022-12-13T00:33:49.127Z,47.47
2022-12-13T00:35:50.581Z,47.42
2022-12-13T00:37:52.141Z,52.10
2022-12-13T00:39:53.569Z,47.88
2022-12-13T00:41:55.113Z,44.63
2022-12-13T00:43:56.919Z,47.45
2022-12-13T00:45:58.384Z,45.25
2022-12-13T00:48:00.193Z,47.50
2022-12-13T00:50:02.371Z,46.55
2022-12-13T00:52:04.034Z,46.28
2022-12-13T00:54:06.262Z,48.50
2022-12-13T00:56:12.837Z,41.35
2022-12-13T00:58:14.265Z,44.00
2022-12-13T01:00:15.805Z,47.00
2022-12-13T01:02:17.288Z,45.63
2022-12-13T01:04:18.801Z,41.67
2022-12-13T01:06:23.262Z,48.42
2022-12-13T01:08:24.766Z,43.70
2022-12-13T01:10:26.234Z,41.65
2022-12-13T01:12:27.675Z,41.40
2022-12-13T01:14:30.179Z,49.42
2022-12-13T01:16:31.755Z,43.40
2022-12-13T01:18:33.591Z,45.00
2022-12-13T01:20:35.057Z,44.30
2022-12-13T01:22:36.501Z,42.58
2022-12-13T01:24:38.571Z,46.85
2022-12-13T01:26:40.066Z,39.72
2022-12-13T01:28:41.739Z,41.65
2022-12-13T01:30:43.216Z,42.10
2022-12-13T01:32:44.785Z,39.92
2022-12-13T01:34:46.250Z,45.33
2022-12-13T01:36:48.325Z,45.17
2022-12-13T01:38:49.846Z,43.88
2022-12-13T01:40:58.989Z,44.33
2022-12-13T01:43:00.561Z,39.53
2022-12-13T01:45:07.189Z,47.35
2022-12-13T01:47:09.552Z,45.63
2022-12-13T01:49:19.357Z,46.00
2022-12-13T01:51:34.229Z,43.05
2022-12-13T01:53:39.246Z,43.78
2022-12-13T01:55:45.402Z,42.90
2022-12-13T01:57:49.505Z,46.05
2022-12-13T01:59:52.600Z,47.20
2022-12-13T02:01:54.046Z,41.08
2022-12-13T02:04:02.658Z,44.33
2022-12-13T02:06:12.926Z,44.60
2022-12-13T02:08:16.051Z,49.72
2022-12-13T02:10:17.765Z,44.33
2022-12-13T02:12:19.222Z,43.20
2022-12-13T02:14:20.687Z,42.25
2022-12-13T02:16:22.976Z,41.28
2022-12-13T02:18:36.709Z,41.92
2022-12-13T02:20:47.576Z,43.28
2022-12-13T02:23:23.872Z,47.63
2022-12-13T02:26:09.730Z,40.72
2022-12-13T02:28:40.604Z,48.75
2022-12-13T02:30:49.376Z,45.50
2022-12-13T02:33:03.411Z,47.33
2022-12-13T02:35:11.593Z,43.47
2022-12-13T02:37:22.900Z,45.20
2022-12-13T02:39:49.932Z,44.47
2022-12-13T02:41:54.473Z,43.60
2022-12-13T02:44:01.247Z,53.30
2022-12-13T02:46:05.344Z,44.40
2022-12-13T02:48:10.734Z,42.75
2022-12-13T02:50:14.781Z,43.58
2022-12-13T02:52:22.462Z,45.38
2022-12-13T02:54:24.824Z,44.72
2022-12-13T02:56:26.299Z,47.70
2022-12-13T02:58:34.979Z,51.13
2022-12-13T03:02:51.743Z,44.08
2022-12-13T03:05:32.951Z,45.08
2022-12-13T03:07:43.909Z,52.45
2022-12-13T03:09:54.047Z,44.13
2022-12-13T03:12:37.128Z,48.13
2022-12-13T03:14:55.310Z,46.10
2022-12-13T03:17:01.186Z,41.25
2022-12-13T03:19:06.026Z,40.65
2022-12-13T03:21:09.550Z,42.58
2022-12-13T03:23:11.307Z,40.63
2022-12-13T03:25:13.225Z,43.78
2022-12-13T03:27:32.997Z,44.83
2022-12-13T03:29:34.464Z,47.78
2022-12-13T03:31:35.928Z,42.85
2022-12-13T03:33:38.819Z,46.05
2022-12-13T03:35:45.798Z,48.85
2022-12-13T03:37:48.000Z,47.22
2022-12-13T03:39:49.700Z,44.08
2022-12-13T03:41:51.543Z,46.33
2022-12-13T03:43:53.023Z,46.13
2022-12-13T03:45:54.599Z,43.83
2022-12-13T03:47:56.061Z,43.75
2022-12-13T03:49:57.523Z,41.97
2022-12-13T03:52:18.947Z,41.28
2022-12-13T03:54:20.423Z,42.67
2022-12-13T03:56:21.878Z,47.47
2022-12-13T03:58:23.765Z,47.25
2022-12-13T04:00:25.239Z,42.47
2022-12-13T04:02:30.680Z,48.60
2022-12-13T04:04:33.087Z,46.88
2022-12-13T04:06:34.789Z,46.47
2022-12-13T04:08:37.334Z,44.72
2022-12-13T04:10:38.869Z,44.53
2022-12-13T04:13:00.470Z,44.83
2022-12-13T04:15:02.046Z,50.08
2022-12-13T04:17:03.618Z,43.38
2022-12-13T04:19:05.199Z,46.53
2022-12-13T04:21:07.189Z,51.33
2022-12-13T04:23:10.402Z,51.92
2022-12-13T04:25:12.532Z,42.05
2022-12-13T04:27:14.174Z,41.47
2022-12-13T04:29:15.764Z,45.13
2022-12-13T04:31:17.361Z,42.28
2022-12-13T04:33:20.974Z,51.10
2022-12-13T04:35:22.676Z,48.78
2022-12-13T04:37:24.166Z,47.22
2022-12-13T04:39:25.633Z,45.33
2022-12-13T04:41:37.635Z,44.80
2022-12-13T04:43:39.066Z,45.60
2022-12-13T04:45:41.002Z,48.38
2022-12-13T04:47:42.608Z,47.50
2022-12-13T04:49:44.145Z,44.15
2022-12-13T04:51:47.535Z,50.42
2022-12-13T04:53:49.981Z,45.85
2022-12-13T04:55:52.666Z,44.30
2022-12-13T04:57:54.119Z,45.67
2022-12-13T04:59:55.553Z,46.58
2022-12-13T05:01:57.056Z,49.88
2022-12-13T05:03:58.587Z,50.00
2022-12-13T05:06:00.034Z,53.60
2022-12-13T05:08:01.691Z,46.97
2022-12-13T05:10:03.909Z,47.00
2022-12-13T05:12:05.645Z,51.83
2022-12-13T05:14:23.815Z,46.78
2022-12-13T05:16:25.517Z,47.75
2022-12-13T05:18:27.823Z,52.10
2022-12-13T05:20:29.292Z,47.17
2022-12-13T05:22:30.789Z,54.13
2022-12-13T05:24:32.289Z,55.75
2022-12-13T05:26:33.735Z,42.92
2022-12-13T05:28:35.557Z,47.20
2022-12-13T05:30:41.021Z,46.40
2022-12-13T05:32:43.487Z,47.72
2022-12-13T05:34:46.198Z,45.53
2022-12-13T05:36:47.646Z,56.33
2022-12-13T05:38:49.133Z,41.78
2022-12-13T05:40:50.851Z,48.38
2022-12-13T05:43:01.256Z,49.63
2022-12-13T05:45:03.577Z,49.20
2022-12-13T05:47:05.063Z,49.00
2022-12-13T05:49:06.570Z,45.53
2022-12-13T05:51:10.125Z,45.40
2022-12-13T05:53:13.225Z,47.97
2022-12-13T05:55:31.901Z,41.33
2022-12-13T05:57:34.091Z,48.38
2022-12-13T05:59:35.691Z,48.38
2022-12-13T06:01:37.395Z,45.40
2022-12-13T06:03:45.649Z,42.90
2022-12-13T06:05:47.289Z,50.15
2022-12-13T06:07:52.182Z,40.03
2022-12-13T06:10:09.609Z,53.40
2022-12-13T06:12:32.058Z,49.13
2022-12-13T06:14:33.655Z,46.35
2022-12-13T06:16:35.515Z,47.17
2022-12-13T06:18:37.622Z,46.10
2022-12-13T06:20:39.133Z,49.40
2022-12-13T06:22:40.572Z,51.42
2022-12-13T06:24:42.319Z,55.88
2022-12-13T06:26:45.356Z,52.70
2022-12-13T06:28:47.205Z,52.90
2022-12-13T06:30:52.244Z,48.35
2022-12-13T06:32:53.756Z,52.30
2022-12-13T06:34:55.210Z,50.45
2022-12-13T06:36:58.495Z,56.35
2022-12-13T06:39:04.088Z,55.80
2022-12-13T06:41:11.152Z,46.00
2022-12-13T06:43:12.625Z,53.03
2022-12-13T06:45:14.187Z,54.22
2022-12-13T06:47:31.895Z,49.15
2022-12-13T06:49:33.825Z,59.17
2022-12-13T06:51:35.370Z,58.08
2022-12-13T06:53:38.725Z,63.88
2022-12-13T06:55:40.254Z,59.95
2022-12-13T06:57:41.982Z,61.88
2022-12-13T06:59:43.886Z,63.78
2022-12-13T07:01:50.678Z,63.65
2022-12-13T07:03:55.994Z,66.30
2022-12-13T07:06:03.413Z,64.57
2022-12-13T07:08:05.134Z,67.95
2022-12-13T07:10:06.906Z,76.53
2022-12-13T07:12:14.240Z,79.75
2022-12-13T07:14:15.681Z,63.72
2022-12-13T07:16:17.584Z,65.18
2022-12-13T07:18:19.266Z,62.15
2022-12-13T07:20:22.642Z,66.45
2022-12-13T07:22:24.114Z,77.53
2022-12-13T07:24:25.547Z,81.72
2022-12-13T07:26:27.086Z,77.30
2022-12-13T07:28:28.963Z,69.18
2022-12-13T07:30:41.073Z,65.88
2022-12-13T07:32:43.222Z,110.75
2022-12-13T07:34:44.655Z,68.22
2022-12-13T07:36:46.232Z,81.20
2022-12-13T07:38:55.362Z,65.47
2022-12-13T07:40:57.958Z,64.35
2022-12-13T07:42:59.476Z,82.03
2022-12-13T07:45:01.032Z,71.80
2022-12-13T07:47:02.589Z,82.55
2022-12-13T07:49:05.228Z,65.00
2022-12-13T07:51:13.992Z,67.15
2022-12-13T07:55:17.777Z,69.38
2022-12-13T07:57:19.221Z,82.18
2022-12-13T07:59:28.783Z,70.28
2022-12-13T08:01:36.722Z,76.35
2022-12-13T08:03:39.117Z,83.82
2022-12-13T08:05:40.622Z,75.10
2022-12-13T08:07:42.102Z,86.20
2022-12-13T08:09:48.012Z,70.53
2022-12-13T08:11:53.012Z,156.18
2022-12-13T08:13:54.943Z,77.63
2022-12-13T08:16:01.066Z,88.22
2022-12-13T08:18:03.952Z,103.35
2022-12-13T08:20:05.799Z,77.13
2022-12-13T08:22:14.213Z,91.53
2022-12-13T08:24:16.038Z,72.40
2022-12-13T08:26:17.532Z,78.80
2022-12-13T08:28:19.105Z,64.85
2022-12-13T08:30:23.089Z,81.88
2022-12-13T08:32:26.032Z,71.93
2022-12-13T08:34:27.506Z,85.75
2022-12-13T08:36:28.952Z,86.78
2022-12-13T08:38:30.408Z,80.68
2022-12-13T08:40:32.415Z,72.25
2022-12-13T08:42:33.905Z,95.45
2022-12-13T08:44:35.359Z,73.72
2022-12-13T08:46:36.858Z,141.02
2022-12-13T08:48:44.512Z,61.70
2022-12-13T08:50:46.351Z,78.50
2022-12-13T08:52:47.866Z,74.45
2022-12-13T08:54:49.500Z,85.18
2022-12-13T08:56:51.044Z,79.25
2022-12-13T08:58:52.538Z,74.57
2022-12-13T09:00:54.097Z,78.70
2022-12-13T09:02:57.870Z,78.07
2022-12-13T09:04:59.319Z,79.00
2022-12-13T09:07:01.394Z,68.10
2022-12-13T09:09:03.867Z,74.05
2022-12-13T09:11:10.491Z,74.03
2022-12-13T09:13:13.129Z,91.72
2022-12-13T09:15:34.987Z,71.93
2022-12-13T09:17:37.606Z,82.35
2022-12-13T09:19:39.264Z,71.75
2022-12-13T09:21:43.196Z,69.18
2022-12-13T09:23:45.645Z,77.40
2022-12-13T09:26:05.240Z,72.65
2022-12-13T09:28:08.956Z,76.28
2022-12-13T09:30:14.500Z,94.20
2022-12-13T09:32:16.096Z,79.65
2022-12-13T09:34:17.562Z,98.63
2022-12-13T09:36:20.910Z,73.07
2022-12-13T09:38:22.479Z,78.72
2022-12-13T09:40:27.297Z,103.88
2022-12-13T09:42:31.255Z,92.75
2022-12-13T09:44:45.201Z,78.75
2022-12-13T09:46:52.692Z,76.63
2022-12-13T09:49:01.757Z,93.88
2022-12-13T09:51:18.177Z,86.15
2022-12-13T09:53:25.371Z,81.75
2022-12-13T09:55:41.934Z,79.38
2022-12-13T09:57:44.210Z,98.75
2022-12-13T09:59:47.451Z,86.45
2022-12-13T10:01:49.077Z,85.63
2022-12-13T10:03:53.294Z,91.28
2022-12-13T10:06:13.813Z,90.20
2022-12-13T10:08:45.115Z,83.80
2022-12-13T10:10:46.587Z,91.22
2022-12-13T10:12:56.099Z,92.22
2022-12-13T10:15:02.833Z,93.57
2022-12-13T10:17:08.704Z,94.70
2022-12-13T10:19:29.283Z,90.13
2022-12-13T10:21:38.774Z,93.10
2022-12-13T10:24:15.285Z,95.55
2022-12-13T10:26:02.837Z,92.57
2022-12-13T10:28:06.304Z,86.43
2022-12-13T10:30:12.106Z,85.43
2022-12-13T10:32:14.081Z,88.85
2022-12-13T10:34:28.330Z,87.25
2022-12-13T10:36:38.460Z,77.45
2022-12-13T10:38:43.803Z,79.95
2022-12-13T10:40:45.858Z,82.30
2022-12-13T10:43:06.382Z,88.80
2022-12-13T10:45:16.178Z,80.18
2022-12-13T10:47:26.274Z,78.00
2022-12-13T10:49:37.593Z,81.00
2022-12-13T10:51:40.175Z,82.88
2022-12-13T10:53:49.936Z,80.20
2022-12-13T10:55:56.118Z,73.53
2022-12-13T10:58:07.547Z,76.38
2022-12-13T11:00:32.260Z,80.40
2022-12-13T11:02:33.707Z,79.00
2022-12-13T11:04:35.987Z,78.55
2022-12-13T11:06:45.806Z,74.40
2022-12-13T11:08:47.363Z,71.78
2022-12-13T11:11:00.710Z,73.10
2022-12-13T11:13:05.702Z,69.80
2022-12-13T11:15:14.523Z,57.63
2022-12-13T11:39:26.903Z,46.28
2022-12-13T11:41:33.890Z,43.85
2022-12-13T11:43:42.539Z,44.67
2022-12-13T11:45:51.031Z,49.78
2022-12-13T11:47:58.689Z,42.45
2022-12-13T11:50:05.422Z,48.35
2022-12-13T11:52:14.223Z,46.50
2022-12-13T11:56:31.637Z,49.58
2022-12-13T11:59:10.214Z,48.83
2022-12-13T12:01:18.192Z,50.10
2022-12-13T12:03:41.960Z,44.60
2022-12-13T12:06:09.332Z,42.53
2022-12-13T12:08:43.117Z,43.67
2022-12-13T12:10:50.185Z,46.20
2022-12-13T12:13:04.602Z,44.28
2022-12-13T12:15:15.958Z,49.28
2022-12-13T12:17:23.199Z,42.47
2022-12-13T12:19:37.034Z,42.40
2022-12-13T12:22:13.249Z,45.05
2022-12-13T12:24:37.946Z,43.40
2022-12-13T12:26:51.419Z,43.58
2022-12-13T12:29:08.142Z,46.03
2022-12-13T12:31:29.434Z,45.03
2022-12-13T12:34:00.801Z,45.45
2022-12-13T12:36:16.126Z,43.03
2022-12-13T12:38:27.128Z,44.47
2022-12-13T12:41:07.510Z,43.35
2022-12-13T12:43:25.947Z,46.13
2022-12-13T12:46:02.073Z,44.45
2022-12-13T12:50:51.690Z,44.05
2022-12-13T12:53:10.581Z,50.45
2022-12-13T12:55:15.051Z,50.80
2022-12-13T12:57:39.528Z,43.13
2022-12-13T13:00:09.553Z,43.90
2022-12-13T13:02:31.480Z,40.75
2022-12-13T13:04:39.236Z,45.03
2022-12-13T13:06:47.936Z,42.33
2022-12-13T13:09:05.125Z,42.72
2022-12-13T13:11:23.837Z,41.78
2022-12-13T13:13:45.975Z,42.13
2022-12-13T13:15:56.262Z,46.58
2022-12-13T13:17:59.715Z,47.15
2022-12-13T13:20:24.528Z,43.28
2022-12-13T13:22:32.271Z,47.88
2022-12-13T13:24:34.769Z,43.65
2022-12-13T13:26:39.235Z,48.65
2022-12-13T13:28:40.727Z,49.08
2022-12-13T13:31:04.058Z,46.95
2022-12-13T13:33:38.915Z,44.67
2022-12-13T13:35:43.422Z,42.85
2022-12-13T13:37:47.899Z,43.20
2022-12-13T13:40:02.109Z,43.47
2022-12-13T13:42:20.882Z,50.72
2022-12-13T13:44:54.755Z,45.42
2022-12-13T13:47:17.177Z,46.15
2022-12-13T13:49:18.669Z,46.95
2022-12-13T13:51:49.415Z,44.85
2022-12-13T13:54:29.931Z,43.25
2022-12-13T13:56:45.004Z,39.83
2022-12-13T13:59:06.304Z,39.42
2022-12-13T14:01:45.460Z,41.83
2022-12-13T14:04:14.912Z,49.03
2022-12-13T14:06:43.948Z,44.55
2022-12-13T14:08:59.170Z,46.88
2022-12-13T14:11:12.507Z,54.30
2022-12-13T14:13:32.480Z,41.70
2022-12-13T14:16:12.184Z,46.58
2022-12-13T14:18:40.209Z,41.50
2022-12-13T14:21:26.183Z,46.83
2022-12-13T14:23:53.692Z,48.58
2022-12-13T14:26:01.082Z,42.28
2022-12-13T14:28:27.558Z,49.75
2022-12-13T14:30:29.768Z,50.17
2022-12-13T14:32:37.099Z,51.45
2022-12-13T14:34:39.410Z,50.65
2022-12-13T14:36:44.001Z,46.33
2022-12-13T14:38:48.045Z,50.75
2022-12-13T14:40:52.832Z,43.40
2022-12-13T14:42:57.509Z,46.05
2022-12-13T14:45:31.223Z,51.38
2022-12-13T14:47:33.998Z,49.70
2022-12-13T14:49:39.453Z,51.63
2022-12-13T14:51:41.659Z,51.15
2022-12-13T14:53:43.580Z,47.97
2022-12-13T14:56:27.616Z,52.13
2022-12-13T14:58:29.642Z,45.75
2022-12-13T15:00:35.374Z,49.95
2022-12-13T15:02:36.895Z,48.33
2022-12-13T15:04:38.410Z,52.30
2022-12-13T15:06:39.975Z,49.75
2022-12-13T15:08:49.619Z,51.00
2022-12-13T15:10:54.596Z,50.67
2022-12-13T15:12:56.271Z,46.88
2022-12-13T15:15:05.377Z,51.25
2022-12-13T15:17:06.950Z,48.28
2022-12-13T15:19:31.307Z,50.65
2022-12-13T15:21:33.696Z,45.03
2022-12-13T15:23:48.728Z,45.53
2022-12-13T15:26:03.527Z,47.35
2022-12-13T15:28:05.994Z,49.33
2022-12-13T15:30:14.158Z,54.03
2022-12-13T15:32:19.145Z,47.33
2022-12-13T15:34:34.465Z,48.53
2022-12-13T15:36:38.466Z,54.88
2022-12-13T15:38:55.481Z,50.45
2022-12-13T15:40:57.145Z,51.03
2022-12-13T15:42:58.800Z,50.25
2022-12-13T15:45:03.129Z,55.60
2022-12-13T15:47:11.264Z,50.50
2022-12-13T15:49:35.686Z,47.90
2022-12-13T15:52:16.787Z,55.90
2022-12-13T15:54:21.806Z,43.97
2022-12-13T15:56:39.220Z,44.70
2022-12-13T15:58:40.675Z,49.95
2022-12-13T16:00:48.930Z,49.03
2022-12-13T16:03:16.983Z,52.30
2022-12-13T16:05:29.296Z,56.35
2022-12-13T16:07:39.825Z,51.97
2022-12-13T16:09:41.293Z,46.92
2022-12-13T16:11:49.964Z,55.92
2022-12-13T16:13:51.454Z,55.28
2022-12-13T16:16:26.947Z,57.63
2022-12-13T16:18:41.250Z,52.10
2022-12-13T16:20:44.023Z,49.20
2022-12-13T16:22:45.936Z,51.30
2022-12-13T16:24:48.756Z,51.60
2022-12-13T16:26:50.491Z,49.58
2022-12-13T16:28:53.367Z,51.10
2022-12-13T16:31:02.028Z,51.45
2022-12-13T16:33:18.768Z,51.55
2022-12-13T16:35:25.146Z,52.22
2022-12-13T16:37:27.518Z,54.75
2022-12-13T16:39:29.109Z,51.05
2022-12-13T16:41:31.378Z,56.00
2022-12-13T16:43:37.607Z,51.17
2022-12-13T16:45:45.698Z,56.60
2022-12-13T16:47:49.447Z,51.27
2022-12-13T16:49:51.113Z,51.33
2022-12-13T16:51:53.191Z,54.75
2022-12-13T16:53:54.649Z,50.15
2022-12-13T16:55:58.359Z,52.15
2022-12-13T16:58:03.864Z,52.67
2022-12-13T17:00:09.897Z,55.08
2022-12-13T17:02:17.665Z,48.80
2022-12-13T17:04:22.420Z,60.35
2022-12-13T17:06:24.920Z,56.22
2022-12-13T17:08:26.394Z,66.72
2022-12-13T17:10:28.282Z,58.90
2022-12-13T17:12:29.807Z,53.22
2022-12-13T17:14:31.240Z,52.95
2022-12-13T17:16:33.122Z,59.15
2022-12-13T17:18:34.600Z,52.35
2022-12-13T17:20:36.405Z,54.20
2022-12-13T17:22:38.429Z,55.47
2022-12-13T17:24:40.055Z,50.75
2022-12-13T17:26:54.190Z,51.13
2022-12-13T17:28:56.650Z,51.65
2022-12-13T17:31:06.296Z,59.20
2022-12-13T17:33:09.784Z,52.20
2022-12-13T17:35:16.399Z,54.47
2022-12-13T17:37:19.834Z,58.97
2022-12-13T17:39:21.397Z,57.88
2022-12-13T17:41:22.847Z,56.05
2022-12-13T17:43:33.048Z,54.45
2022-12-13T17:45:36.454Z,57.45
2022-12-13T17:47:39.231Z,58.42
2022-12-13T17:49:40.823Z,56.75
2022-12-13T17:51:42.357Z,52.15
2022-12-13T17:53:52.779Z,56.97
2022-12-13T17:55:56.621Z,52.28
2022-12-13T17:58:04.136Z,57.53
2022-12-13T18:00:06.897Z,51.15
2022-12-13T18:02:11.114Z,59.17
2022-12-13T18:04:13.018Z,55.25
2022-12-13T18:06:15.433Z,54.15
2022-12-13T18:08:18.398Z,54.55
2022-12-13T18:10:22.576Z,47.40
2022-12-13T18:13:06.763Z,52.67
2022-12-13T18:15:10.541Z,53.08
2022-12-13T18:17:12.040Z,52.40
2022-12-13T18:19:14.866Z,53.05
2022-12-13T18:21:17.904Z,50.25
2022-12-13T18:23:19.928Z,56.78
2022-12-13T18:25:21.389Z,52.28
2022-12-13T18:27:22.914Z,46.38
2022-12-13T18:29:24.400Z,53.92
2022-12-13T18:31:26.147Z,52.92
2022-12-13T18:33:28.072Z,53.55
2022-12-13T18:35:30.045Z,53.20
2022-12-13T18:37:31.710Z,46.60
2022-12-13T18:39:34.839Z,51.80
2022-12-13T18:41:36.361Z,53.63
2022-12-13T18:43:38.227Z,53.95
2022-12-13T18:45:39.685Z,59.03
2022-12-13T18:47:41.359Z,52.22
2022-12-13T18:49:43.279Z,58.92
2022-12-13T18:51:56.283Z,58.72
2022-12-13T18:53:58.308Z,59.90
2022-12-13T18:56:05.208Z,65.43
2022-12-13T18:58:06.636Z,63.60
2022-12-13T19:00:09.071Z,65.05
2022-12-13T19:02:14.375Z,61.97
2022-12-13T19:04:15.830Z,61.20
2022-12-13T19:06:19.879Z,62.20
2022-12-13T19:08:26.011Z,59.50
2022-12-13T19:10:27.795Z,56.70
2022-12-13T19:12:29.451Z,57.28
2022-12-13T19:14:30.890Z,59.78
2022-12-13T19:16:32.662Z,56.60
2022-12-13T19:18:35.333Z,60.00
2022-12-13T19:20:37.117Z,53.75
2022-12-13T19:22:39.350Z,52.65
2022-12-13T19:24:40.862Z,52.42
2022-12-13T19:26:42.393Z,54.90
2022-12-13T19:28:44.238Z,49.85
2022-12-13T19:30:47.653Z,53.95
2022-12-13T19:32:49.806Z,57.78
2022-12-13T19:34:51.255Z,55.88
2022-12-13T19:36:52.761Z,59.97
2022-12-13T19:38:55.916Z,59.60
2022-12-13T19:40:57.465Z,58.90
2022-12-13T19:42:58.934Z,55.45
2022-12-13T19:45:00.365Z,58.63
2022-12-13T19:47:01.870Z,56.10
2022-12-13T19:49:04.253Z,57.22
2022-12-13T19:51:08.170Z,57.08
2022-12-13T19:53:10.307Z,59.22
2022-12-13T19:55:11.840Z,54.83
2022-12-13T19:57:13.626Z,57.70
2022-12-13T19:59:15.087Z,61.95
2022-12-13T20:01:17.864Z,61.15
2022-12-13T20:03:19.366Z,60.00
2022-12-13T20:05:21.000Z,58.20
2022-12-13T20:07:23.816Z,60.25
2022-12-13T20:09:25.369Z,58.13
2022-12-13T20:11:26.951Z,55.30
2022-12-13T20:13:29.221Z,52.00
2022-12-13T20:15:31.087Z,51.30
2022-12-13T20:17:32.621Z,55.85
2022-12-13T20:19:34.045Z,51.05
2022-12-13T20:21:35.611Z,54.65
2022-12-13T20:23:38.310Z,49.53
2022-12-13T20:25:40.081Z,56.25
2022-12-13T20:27:41.852Z,47.83
2022-12-13T20:29:43.323Z,48.53
2022-12-13T20:31:52.098Z,49.78
2022-12-13T20:33:59.419Z,50.47
2022-12-13T20:36:25.164Z,46.75
2022-12-13T20:38:27.550Z,47.72
2022-12-13T20:40:29.024Z,46.03
2022-12-13T20:42:30.546Z,46.42
2022-12-13T20:44:32.171Z,44.72
2022-12-13T20:46:34.103Z,51.60
2022-12-13T20:48:38.853Z,50.13
2022-12-13T20:50:40.302Z,53.78
2022-12-13T20:52:44.131Z,48.92
2022-12-13T20:54:49.178Z,44.83
2022-12-13T20:56:51.123Z,54.25
2022-12-13T20:58:52.924Z,51.83
2022-12-13T21:00:54.850Z,51.30
2022-12-13T21:02:56.322Z,54.13
2022-12-13T21:04:57.784Z,52.97
2022-12-13T21:06:59.595Z,47.55
2022-12-13T21:09:03.010Z,50.45
2022-12-13T21:11:23.758Z,54.25
2022-12-13T21:13:25.613Z,48.65
2022-12-13T21:15:27.383Z,54.65
2022-12-13T21:17:28.819Z,58.45
2022-12-13T21:19:39.039Z,52.50
2022-12-13T21:21:41.429Z,55.30
2022-12-13T21:23:42.997Z,55.53
2022-12-13T21:25:44.445Z,52.85
2022-12-13T21:27:49.593Z,61.10
2022-12-13T21:29:51.015Z,51.33
2022-12-13T21:31:53.301Z,54.95
2022-12-13T21:33:57.607Z,54.83
2022-12-13T21:36:18.266Z,50.67
2022-12-13T21:38:19.783Z,49.90
2022-12-13T21:40:22.551Z,49.58
2022-12-13T21:42:24.004Z,55.72
2022-12-13T21:44:25.569Z,53.83
2022-12-13T21:46:54.758Z,54.97
2022-12-13T21:48:51.879Z,50.15
2022-12-13T21:50:53.326Z,52.40
2022-12-13T21:52:54.764Z,49.17
2022-12-13T21:55:15.170Z,54.65
2022-12-13T21:57:36.290Z,47.92
2022-12-13T21:59:37.730Z,54.13
2022-12-13T22:02:13.071Z,49.92
2022-12-13T22:04:15.922Z,48.30
2022-12-13T22:06:17.474Z,50.80
2022-12-13T22:08:19.056Z,47.33
2022-12-13T22:10:20.521Z,59.97
2022-12-13T22:12:30.893Z,99.65
2022-12-13T22:14:32.378Z,70.05
2022-12-13T22:16:34.025Z,55.80
2022-12-13T22:18:35.515Z,51.15
2022-12-13T22:20:37.020Z,45.20
2022-12-13T22:22:40.165Z,51.05
2022-12-13T22:24:41.602Z,50.03
2022-12-13T22:26:43.106Z,45.55
2022-12-13T22:28:44.962Z,55.60
2022-12-13T22:30:53.702Z,43.08
2022-12-13T22:34:57.117Z,49.78
2022-12-13T22:36:59.256Z,53.97
2022-12-13T22:39:00.971Z,91.63
2022-12-13T22:41:04.203Z,66.07
2022-12-13T22:43:05.652Z,53.92
2022-12-13T22:45:07.387Z,55.22
2022-12-13T22:47:08.895Z,62.85
2022-12-13T22:49:11.473Z,59.35
2022-12-13T22:51:15.461Z,51.20
2022-12-13T22:53:16.902Z,54.53
2022-12-13T22:55:18.320Z,54.63
2022-12-13T22:57:19.778Z,54.92
2022-12-13T22:59:21.255Z,52.78
2022-12-13T23:01:27.997Z,53.17
2022-12-13T23:03:29.466Z,51.13
2022-12-13T23:05:30.904Z,46.30
2022-12-13T23:07:32.405Z,50.38
2022-12-13T23:09:33.956Z,50.03
2022-12-13T23:11:54.069Z,46.70
2022-12-13T23:13:58.643Z,50.65
2022-12-13T23:16:00.078Z,53.20
2022-12-13T23:18:01.505Z,51.53
2022-12-13T23:20:04.408Z,52.85
2022-12-13T23:22:08.417Z,55.13
2022-12-13T23:24:10.781Z,57.13
2022-12-13T23:26:19.554Z,78.13
2022-12-13T23:28:20.982Z,53.22
2022-12-13T23:30:22.502Z,49.95
2022-12-13T23:32:24.001Z,50.65
2022-12-13T23:34:25.454Z,57.53
2022-12-13T23:36:29.278Z,49.95
2022-12-13T23:38:31.501Z,50.47
2022-12-13T23:40:33.041Z,51.05
2022-12-13T23:42:34.485Z,49.92
2022-12-13T23:44:36.181Z,47.10
2022-12-13T23:46:37.874Z,44.55
2022-12-13T23:48:39.648Z,49.05
2022-12-13T23:50:41.588Z,53.97
2022-12-13T23:52:43.151Z,43.13
2022-12-13T23:54:44.634Z,44.70
2022-12-13T23:56:47.198Z,51.08
2022-12-13T23:58:49.090Z,43.92
